Yale, OK (74085)

4:12 AM CDT on May 28, 2015 (GMT -0500)
Western Heights | | Change Station
CLOSE
Current Station
Personal Weather Station
Location: Yale, OK
Elevation: 886 ft
Nearby Weather Stations

Elev 886 ft 36.12 °N, 96.71 °W | Updated 7 minutes ago

Clear
Clear
66.0 °F
Feels Like 66.0 °F
N
1.0
Wind Variable Wind from NW
Gusts 7.0 mph

Today
High -- | Low -- °F
--% Chance of Precip.
Yesterday
High -- | Low -- °F
Precip. -- in
6:12 AM 8:35 PM
Waxing Gibbous, 74% visible
Pressure 30.03 in
Visibility 10.0 miles
Clouds Scattered Clouds 4700 ft
Dew Point 64 °F
Humidity 93%
Rainfall -999.00 in
Snow Depth Not available.
UV 0 out of 12
Pollen 4.10 out of 12
Air Quality Not available.
Flu Activity Sporadic
METAR KSWO 280753Z AUTO 29007KT 10SM SCT047 19/18 A3006 RMK AO2 PRESRR SLP167 T01890178 TSNO

More Conditions Fewer Conditions

Pressure 30.03 in
Visibility 10.0 miles
Clouds Scattered Clouds 4700 ft
Dew Point 64 °F
Humidity 93%
Rainfall -999.00 in
Snow Depth Not available.
UV 0 out of 12
Pollen 4.10 out of 12
Air Quality Not available.
Flu Activity Sporadic
METAR KSWO 280753Z AUTO 29007KT 10SM SCT047 19/18 A3006 RMK AO2 PRESRR SLP167 T01890178 TSNO

More Conditions Fewer Conditions

10-Day Weather Forecast

Almanac

Astronomy

May. 28, 2015 Rise Set
Actual Time
Civil Twilight
Nautical Twilight
Astronomical Twilight
Moon
Length of Visible Light
Length of Day
Tomorrow will be .
, % of the Moon is Illuminated

Today's Extremes

State Highs State Lows

Community

WunderPhotos

Upload Photos

1,824,935 photos uploaded!

WunderBlogs® & News

Nearby

Air Quality

  Air Quality AQ Index Pollutant
Not available.

Snow Depth

Station Depth Elevation

Earthquake Activity

City Distance Mag. Time & Date
Minimum magnitude displayed is 2.5.

Coastal Water Temperatures

Place Temperature

Stations

Nearby Weather Stations

Station Location Temp. Windchill Dew Point Humidity Wind Precip. Elev Updated Type